Parkin, Arkansas
Current Conditions -  °F | °C
As of 2:53 AM on Wednesday 22 Oct 2014 (Local Time) from KAWM Reporting Station
Clear Clear  
Wind Chill: 11°   Ceiling: Unl
Heat Index: 11°   Visibility: 10mi
Dew Point:   Wind: 5mph
Humidity: 89%   Direction: 60°ENE
Pressure: 30.13"   Gusts: NA
Location:  35.26°N, 90.57°W
Report Text: KAWM 220753Z AUTO 06004KT 10SM CLR 11/09 A3013 RMK AO2 SLP202 T01110094
Loading
Personal Weather Stations






























Interactive Weather Map
Tropical Storm Tracking
New forecast layout! Learn more

10-Day Weather Forecast

Advertisements
Track Severe Weather on mobile